Change the Weather History Date:

Tuesday, February 26, 2013

  Actual Average Record
Temperature  
Mean Temperature 24 °F -  
Max Temperature 39 °F 52 °F 39 °F (2013)
Min Temperature 9 °F 24 °F 9 °F (2013)
Degree Days  
Heating Degree Days 41    
Moisture  
Dew Point 15 °F    
Average Humidity 71    
Maximum Humidity 88    
Minimum Humidity 45    
Precipitation  
Precipitation 0.00 in - - ()
Sea Level Pressure  
Sea Level Pressure 29.85 in    
Wind  
Wind Speed 8 mph (WNW)    
Max Wind Speed 14 mph    
Max Gust Speed 17 mph    
Visibility 10 miles    
Events      
Averages and records for this station are not official NWS values.
T = Trace of Precipitation, MM = Missing Value Source: NWS Daily Summary

Daily Weather History Graph

Daily Weather History Graph

Search for Another Location

Airport or City:

Trip Planner

Search our weather history database for the weather conditions in past years. The results will help you decide how hot, cold, wet, or windy it might be!

Date:

Astronomy

Feb. 26, 2013 Rise Set
Actual Time 7:24 AM CST 6:36 PM CST
Civil Twilight 6:57 AM CST 7:03 PM CST
Nautical Twilight 6:25 AM CST 7:34 PM CST
Astronomical Twilight 5:54 AM CST 8:06 PM CST
Moon 7:54 PM CST (2/26) 7:28 AM CST (2/26)
Length of Visible Light 12h 06m
Length of Day
11h 12m
Full, 99% of the Moon is Illuminated
Feb 26
Full
Mar 4
Last Quarter
Mar 11
New
Mar 19
First Quarter
Mar 27
Full

Hourly Weather History & Observations

Time (CST) Temp. Windchill Dew Point Humidity Pressure Visibility Wind Dir Wind Speed Gust Speed Precip Events Conditions
12:15 AM 15.8 °F 4.2 °F 12.7 °F 88% 29.89 in 10.0 mi WSW 9.2 mph - N/A   Clear
12:35 AM 16.2 °F 4.7 °F 13.1 °F 88% 29.88 in 10.0 mi WSW 9.2 mph - N/A   Clear
12:55 AM 16.3 °F 5.7 °F 13.1 °F 87% 29.88 in 10.0 mi WSW 8.1 mph - N/A   Clear
1:15 AM 15.8 °F 3.4 °F 12.7 °F 88% 29.86 in 10.0 mi WSW 10.4 mph - N/A   Clear
1:35 AM 14.9 °F 3.1 °F 11.8 °F 88% 29.85 in 10.0 mi WSW 9.2 mph - N/A   Clear
1:55 AM 15.6 °F 5.9 °F 12.0 °F 86% 29.86 in 10.0 mi SW 6.9 mph - N/A   Clear
2:15 AM 14.9 °F 6.1 °F 11.3 °F 86% 29.87 in 10.0 mi SSW 5.8 mph - N/A   Clear
2:35 AM 14.4 °F 5.5 °F 10.6 °F 85% 29.87 in 10.0 mi SW 5.8 mph - N/A   Clear
2:55 AM 13.6 °F - 9.9 °F 85% 29.87 in 10.0 mi Calm Calm - N/A   Clear
3:15 AM 13.6 °F 4.6 °F 10.0 °F 86% 29.86 in 10.0 mi WSW 5.8 mph - N/A   Clear
3:35 AM 12.2 °F 0.7 °F 8.2 °F 84% 29.85 in 10.0 mi West 8.1 mph - N/A   Clear
3:55 AM 11.8 °F -0.7 °F 8.6 °F 87% 29.84 in 10.0 mi WSW 9.2 mph - N/A   Clear
4:15 AM 11.8 °F -1.5 °F 8.2 °F 85% 29.83 in 10.0 mi WSW 10.4 mph - N/A   Clear
4:35 AM 11.5 °F -0.2 °F 7.5 °F 84% 29.82 in 10.0 mi WSW 8.1 mph - N/A   Clear
4:55 AM 10.9 °F -2.6 °F 6.8 °F 83% 29.82 in 10.0 mi WSW 10.4 mph - N/A   Clear
5:15 AM 11.1 °F -0.6 °F 7.3 °F 85% 29.82 in 10.0 mi SW 8.1 mph - N/A   Clear
5:35 AM 11.5 °F -1.1 °F 7.2 °F 83% 29.82 in 10.0 mi WSW 9.2 mph - N/A   Clear
5:55 AM 10.9 °F 0.2 °F 6.6 °F 83% 29.82 in 10.0 mi WSW 6.9 mph - N/A   Clear
6:15 AM 9.7 °F -1.3 °F 5.5 °F 83% 29.82 in 10.0 mi SW 6.9 mph - N/A   Clear
6:35 AM 10.2 °F -2.7 °F 5.7 °F 82% 29.82 in 10.0 mi SW 9.2 mph - N/A   Clear
6:55 AM 10.2 °F -2.7 °F 5.7 °F 82% 29.82 in 10.0 mi WSW 9.2 mph - N/A   Clear
7:15 AM 10.2 °F -3.5 °F 5.5 °F 81% 29.83 in 10.0 mi WSW 10.4 mph - N/A   Clear
7:35 AM 10.2 °F -1.7 °F 5.4 °F 81% 29.82 in 10.0 mi WSW 8.1 mph - N/A   Clear
7:55 AM 11.1 °F -2.4 °F 6.1 °F 80% 29.82 in 10.0 mi WSW 10.4 mph - N/A   Clear
8:15 AM 12.0 °F -0.4 °F 7.5 °F 82% 29.82 in 10.0 mi WSW 9.2 mph - N/A   Clear
8:35 AM 15.4 °F 8.1 °F 10.6 °F 81% 29.81 in 10.0 mi WSW 4.6 mph - N/A   Clear
8:55 AM 16.5 °F 6.0 °F 10.9 °F 79% 29.81 in 10.0 mi WSW 8.1 mph - N/A   Clear
9:15 AM 18.0 °F 4.8 °F 11.7 °F 76% 29.82 in 10.0 mi WSW 12.7 mph - N/A   Clear
9:35 AM 19.2 °F 12.5 °F 12.7 °F 76% 29.82 in 10.0 mi WSW 4.6 mph - N/A   Clear
9:55 AM 21.2 °F 13.6 °F 14.2 °F 74% 29.82 in 10.0 mi WSW 5.8 mph - N/A   Clear
10:15 AM 23.7 °F 15.6 °F 15.8 °F 72% 29.81 in 10.0 mi West 6.9 mph - N/A   Clear
10:35 AM 26.8 °F 21.4 °F 16.7 °F 66% 29.81 in 10.0 mi WSW 4.6 mph - N/A   Clear
10:55 AM 28.9 °F 21.9 °F 16.7 °F 60% 29.81 in 10.0 mi West 6.9 mph - N/A   Clear
11:15 AM 31.3 °F 26.6 °F 17.1 °F 56% 29.81 in 10.0 mi WNW 4.6 mph - N/A   Clear
11:35 AM 35.8 °F 30.1 °F 18.7 °F 50% 29.81 in 10.0 mi NW 6.9 mph - N/A   Clear
11:55 AM 37.4 °F 28.9 °F 19.4 °F 48% 29.81 in 10.0 mi NNW 13.8 mph - N/A   Clear
12:15 PM 38.1 °F 29.8 °F 19.8 °F 48% 29.81 in 10.0 mi North 13.8 mph 17.3 mph N/A   Clear
12:35 PM 36.9 °F 29.6 °F 19.4 °F 49% 29.81 in 10.0 mi NNW 10.4 mph - N/A   Clear
12:55 PM 38.1 °F 30.7 °F 20.1 °F 48% 29.80 in 10.0 mi North 11.5 mph - N/A   Clear
1:15 PM 38.5 °F 31.1 °F 19.0 °F 46% 29.79 in 10.0 mi North 11.5 mph - N/A   Clear
1:35 PM 38.3 °F 31.9 °F 19.4 °F 47% 29.79 in 10.0 mi North 9.2 mph 16.1 mph N/A   Clear
1:55 PM 38.3 °F 30.9 °F 19.6 °F 47% 29.78 in 10.0 mi North 11.5 mph - N/A   Clear
2:15 PM 39.0 °F 32.8 °F 19.2 °F 45% 29.78 in 10.0 mi North 9.2 mph - N/A   Clear
2:35 PM 37.6 °F 31.0 °F 18.1 °F 45% 29.78 in 10.0 mi North 9.2 mph - N/A   Clear
2:55 PM 37.4 °F 30.8 °F 18.5 °F 46% 29.77 in 10.0 mi North 9.2 mph - N/A   Clear
3:15 PM 37.4 °F 31.4 °F 19.0 °F 48% 29.78 in 10.0 mi NNW 8.1 mph - N/A   Clear
3:35 PM 37.0 °F 31.6 °F 18.9 °F 48% 29.78 in 10.0 mi NNW 6.9 mph - N/A   Clear
3:55 PM 37.6 °F 31.6 °F 19.4 °F 48% 29.79 in 10.0 mi North 8.1 mph - N/A   Clear
4:15 PM 36.7 °F 29.9 °F 18.5 °F 48% 29.79 in 10.0 mi NNE 9.2 mph - N/A   Clear
4:35 PM 35.6 °F 28.6 °F 19.0 °F 51% 29.80 in 10.0 mi NNE 9.2 mph - N/A   Clear
4:55 PM 34.9 °F 27.1 °F 19.6 °F 54% 29.81 in 10.0 mi North 10.4 mph - N/A   Clear
5:15 PM 34.2 °F 27.5 °F 20.5 °F 57% 29.82 in 10.0 mi North 8.1 mph - N/A   Clear
5:35 PM 32.9 °F 24.1 °F 20.3 °F 60% 29.83 in 10.0 mi NNE 11.5 mph - N/A   Clear
5:55 PM 32.0 °F 24.8 °F 20.5 °F 63% 29.85 in 10.0 mi NNE 8.1 mph - N/A   Clear
6:15 PM 31.1 °F 25.4 °F 20.8 °F 66% 29.86 in 10.0 mi North 5.8 mph - N/A   Clear
6:35 PM 29.1 °F 23.0 °F 21.2 °F 72% 29.87 in 10.0 mi North 5.8 mph - N/A   Clear
6:55 PM 28.4 °F 22.2 °F 21.6 °F 76% 29.88 in 10.0 mi NNW 5.8 mph - N/A   Clear
7:15 PM 27.3 °F 22.0 °F 21.2 °F 78% 29.89 in 10.0 mi NNW 4.6 mph - N/A   Clear
7:35 PM 26.1 °F 19.4 °F 20.8 °F 81% 29.90 in 10.0 mi NNW 5.8 mph - N/A   Clear
7:55 PM 25.9 °F 18.2 °F 20.3 °F 79% 29.91 in 10.0 mi NW 6.9 mph - N/A   Clear
8:15 PM 25.2 °F 19.5 °F 19.9 °F 81% 29.91 in 10.0 mi NW 4.6 mph - N/A   Clear
8:35 PM 24.6 °F 20.3 °F 20.3 °F 84% 29.92 in 10.0 mi NW 3.5 mph - N/A   Clear
8:55 PM 23.5 °F 16.4 °F 19.9 °F 86% 29.92 in 10.0 mi West 5.8 mph - N/A   Clear
9:15 PM 22.6 °F 14.3 °F 19.2 °F 87% 29.94 in 10.0 mi West 6.9 mph - N/A   Clear
9:35 PM 23.9 °F 15.8 °F 19.9 °F 85% 29.94 in 10.0 mi WNW 6.9 mph - N/A   Clear
9:55 PM 23.9 °F 15.0 °F 19.8 °F 84% 29.95 in 10.0 mi West 8.1 mph - N/A   Clear
10:15 PM 25.7 °F 18.0 °F 19.6 °F 78% 29.95 in 10.0 mi WNW 6.9 mph - N/A   Clear
10:35 PM 25.5 °F 16.9 °F 19.4 °F 78% 29.96 in 10.0 mi WNW 8.1 mph - N/A   Clear
10:55 PM 27.1 °F 17.5 °F 19.9 °F 74% 29.96 in 10.0 mi NW 10.4 mph - N/A   Clear
11:15 PM 28.0 °F 17.5 °F 19.6 °F 71% 29.97 in 10.0 mi NW 12.7 mph - N/A   Clear
11:35 PM 28.2 °F 17.7 °F 18.5 °F 67% 29.97 in 10.0 mi NNW 12.7 mph - N/A   Clear
11:55 PM 28.9 °F 18.2 °F 18.3 °F 65% 29.98 in 10.0 mi NNW 13.8 mph - N/A   Clear